SAS212T ENGM-ENBR
Flight info
| Callsign | SAS212T |
|---|---|
| Flight time | 0h 40m |
| Altitude | 28000 |
| Route | ATLAP DCT AGEKU DCT PESUR |
| Aircraft | A320/M-SDE3FGHIRWY/LB1 |
Departure
| Time | 2026-05-07 14:24 |
|---|---|
| Airport | Oslo-Gardermoen International Airport (ENGM) |
Arrival
| Time | 2026-05-07 15:05 |
|---|---|
| Airport | Bergen Airport, Flesland (ENBR) |
| Time | Latitude | Longitude | Altitude | Speed | Heading |
|---|---|---|---|---|---|
| 2026-05-07 13:58 | 60.19388 | 11.10645 | 685 ft | 0 kts | 196° |
| 2026-05-07 14:11 | 60.19389 | 11.10645 | 685 ft | 0 kts | 196° |
| 2026-05-07 14:14 | 60.19405 | 11.10654 | 683 ft | 4 kts | 192° |
| 2026-05-07 14:14 | 60.19431 | 11.10662 | 685 ft | 4 kts | 184° |
| 2026-05-07 14:14 | 60.19458 | 11.10663 | 678 ft | 4 kts | 174° |
| 2026-05-07 14:15 | 60.19484 | 11.10653 | 679 ft | 4 kts | 158° |
| 2026-05-07 14:15 | 60.19505 | 11.10626 | 681 ft | 4 kts | 116° |
| 2026-05-07 14:15 | 60.19507 | 11.10615 | 678 ft | 1 kts | 106° |
| 2026-05-07 14:18 | 60.19507 | 11.10617 | 682 ft | 1 kts | 106° |
| 2026-05-07 14:18 | 60.19503 | 11.10647 | 682 ft | 4 kts | 105° |
| 2026-05-07 14:18 | 60.19494 | 11.10714 | 683 ft | 6 kts | 105° |
| 2026-05-07 14:18 | 60.19479 | 11.10818 | 683 ft | 9 kts | 105° |
| 2026-05-07 14:19 | 60.19459 | 11.10959 | 683 ft | 12 kts | 106° |
| 2026-05-07 14:19 | 60.19434 | 11.11139 | 681 ft | 15 kts | 106° |
| 2026-05-07 14:19 | 60.19438 | 11.11284 | 681 ft | 11 kts | 39° |
| 2026-05-07 14:19 | 60.19524 | 11.11340 | 682 ft | 14 kts | 16° |
| 2026-05-07 14:20 | 60.19628 | 11.11400 | 683 ft | 17 kts | 16° |
| 2026-05-07 14:20 | 60.19747 | 11.11470 | 684 ft | 19 kts | 16° |
| 2026-05-07 14:20 | 60.19875 | 11.11544 | 685 ft | 18 kts | 16° |
| 2026-05-07 14:20 | 60.20006 | 11.11619 | 686 ft | 21 kts | 15° |
| 2026-05-07 14:21 | 60.20087 | 11.11746 | 682 ft | 16 kts | 90° |
| 2026-05-07 14:21 | 60.20061 | 11.11932 | 686 ft | 2 kts | 105° |
| 2026-05-07 14:22 | 60.20059 | 11.11950 | 687 ft | 4 kts | 105° |
| 2026-05-07 14:23 | 60.20047 | 11.12029 | 686 ft | 9 kts | 107° |
| 2026-05-07 14:23 | 60.20019 | 11.12155 | 686 ft | 11 kts | 136° |
| 2026-05-07 14:23 | 60.19934 | 11.12141 | 683 ft | 15 kts | 198° |
| 2026-05-07 14:23 | 60.19816 | 11.12070 | 685 ft | 29 kts | 196° |
| 2026-05-07 14:24 | 60.19371 | 11.11812 | 683 ft | 100 kts | 195° |
| 2026-05-07 14:24 | 60.18515 | 11.11309 | 698 ft | 151 kts | 198° |
| 2026-05-07 14:24 | 60.17532 | 11.10670 | 1318 ft | 146 kts | 198° |
| 2026-05-07 14:24 | 60.16543 | 11.10091 | 1887 ft | 151 kts | 196° |
| 2026-05-07 14:25 | 60.15489 | 11.09506 | 2304 ft | 170 kts | 197° |
| 2026-05-07 14:25 | 60.14275 | 11.08825 | 2642 ft | 192 kts | 197° |
| 2026-05-07 14:25 | 60.12924 | 11.07975 | 2981 ft | 217 kts | 207° |
| 2026-05-07 14:25 | 60.11805 | 11.05791 | 3409 ft | 240 kts | 245° |
| 2026-05-07 14:26 | 60.11535 | 11.02396 | 4082 ft | 256 kts | 274° |
| 2026-05-07 14:26 | 60.11670 | 10.98805 | 5127 ft | 259 kts | 275° |
| 2026-05-07 14:26 | 60.11836 | 10.95168 | 6132 ft | 264 kts | 275° |
| 2026-05-07 14:26 | 60.12009 | 10.91487 | 7128 ft | 267 kts | 275° |
| 2026-05-07 14:27 | 60.12177 | 10.87761 | 8114 ft | 269 kts | 275° |
| 2026-05-07 14:27 | 60.12341 | 10.84015 | 9116 ft | 270 kts | 275° |
| 2026-05-07 14:27 | 60.12500 | 10.80246 | 10123 ft | 272 kts | 275° |
| 2026-05-07 14:27 | 60.12658 | 10.76356 | 10614 ft | 291 kts | 275° |
| 2026-05-07 14:28 | 60.12825 | 10.72155 | 10898 ft | 313 kts | 275° |
| 2026-05-07 14:28 | 60.12998 | 10.67734 | 11513 ft | 321 kts | 274° |
| 2026-05-07 14:28 | 60.13172 | 10.63243 | 12317 ft | 324 kts | 274° |
| 2026-05-07 14:28 | 60.13346 | 10.58722 | 13126 ft | 327 kts | 274° |
| 2026-05-07 14:29 | 60.13519 | 10.54152 | 13930 ft | 330 kts | 274° |
| 2026-05-07 14:29 | 60.13692 | 10.49553 | 14642 ft | 332 kts | 274° |
| 2026-05-07 14:29 | 60.13866 | 10.44917 | 15380 ft | 333 kts | 274° |
| 2026-05-07 14:29 | 60.14042 | 10.40264 | 16093 ft | 335 kts | 274° |
| 2026-05-07 14:30 | 60.14217 | 10.35590 | 16838 ft | 337 kts | 274° |
| 2026-05-07 14:30 | 60.14390 | 10.30888 | 17582 ft | 338 kts | 274° |
| 2026-05-07 14:30 | 60.14559 | 10.26173 | 18327 ft | 340 kts | 274° |
| 2026-05-07 14:30 | 60.14727 | 10.21421 | 18999 ft | 342 kts | 274° |
| 2026-05-07 14:31 | 60.14818 | 10.16625 | 19680 ft | 344 kts | 271° |
| 2026-05-07 14:31 | 60.14827 | 10.11874 | 20373 ft | 346 kts | 270° |
| 2026-05-07 14:31 | 60.14794 | 10.07026 | 21032 ft | 348 kts | 270° |
| 2026-05-07 14:31 | 60.14748 | 10.02159 | 21681 ft | 351 kts | 270° |
| 2026-05-07 14:32 | 60.14706 | 9.97235 | 22266 ft | 354 kts | 270° |
| 2026-05-07 14:32 | 60.14671 | 9.92291 | 22889 ft | 356 kts | 270° |
| 2026-05-07 14:32 | 60.14638 | 9.87313 | 23485 ft | 357 kts | 270° |
| 2026-05-07 14:32 | 60.14611 | 9.82303 | 23985 ft | 360 kts | 270° |
| 2026-05-07 14:33 | 60.14717 | 9.77283 | 24454 ft | 361 kts | 275° |
| 2026-05-07 14:33 | 60.14937 | 9.72244 | 24937 ft | 363 kts | 275° |
| 2026-05-07 14:33 | 60.15155 | 9.67189 | 25405 ft | 364 kts | 275° |
| 2026-05-07 14:33 | 60.15370 | 9.62116 | 25859 ft | 366 kts | 275° |
| 2026-05-07 14:34 | 60.15580 | 9.57012 | 26298 ft | 368 kts | 275° |
| 2026-05-07 14:34 | 60.15786 | 9.51943 | 26730 ft | 369 kts | 275° |
| 2026-05-07 14:34 | 60.15992 | 9.46789 | 27168 ft | 372 kts | 275° |
| 2026-05-07 14:34 | 60.16195 | 9.41609 | 27611 ft | 373 kts | 275° |
| 2026-05-07 14:35 | 60.16396 | 9.36399 | 28001 ft | 375 kts | 275° |
| 2026-05-07 14:35 | 60.16798 | 9.26035 | 28067 ft | 369 kts | 275° |
| 2026-05-07 14:36 | 60.17186 | 9.15763 | 28065 ft | 368 kts | 275° |
| 2026-05-07 14:36 | 60.17566 | 9.05500 | 28081 ft | 368 kts | 275° |
| 2026-05-07 14:37 | 60.17942 | 8.95230 | 28076 ft | 368 kts | 275° |
| 2026-05-07 14:37 | 60.18484 | 8.79804 | 28112 ft | 369 kts | 275° |
| 2026-05-07 14:38 | 60.18838 | 8.69540 | 28112 ft | 368 kts | 274° |
| 2026-05-07 14:38 | 60.19185 | 8.59332 | 28110 ft | 368 kts | 274° |
| 2026-05-07 14:39 | 60.19524 | 8.49080 | 28130 ft | 368 kts | 274° |
| 2026-05-07 14:39 | 60.19848 | 8.38828 | 28129 ft | 368 kts | 274° |
| 2026-05-07 14:40 | 60.20167 | 8.28555 | 28105 ft | 368 kts | 274° |
| 2026-05-07 14:40 | 60.20486 | 8.18257 | 28115 ft | 369 kts | 274° |
| 2026-05-07 14:41 | 60.20798 | 8.07945 | 28127 ft | 370 kts | 274° |
| 2026-05-07 14:41 | 60.21100 | 7.97590 | 28146 ft | 371 kts | 274° |
| 2026-05-07 14:42 | 60.21381 | 7.87303 | 28149 ft | 371 kts | 273° |
| 2026-05-07 14:42 | 60.21521 | 7.82123 | 27953 ft | 370 kts | 274° |
| 2026-05-07 14:42 | 60.21661 | 7.76966 | 27683 ft | 368 kts | 273° |
| 2026-05-07 14:43 | 60.21799 | 7.71830 | 27418 ft | 367 kts | 273° |
| 2026-05-07 14:43 | 60.21934 | 7.66708 | 27154 ft | 366 kts | 273° |
| 2026-05-07 14:43 | 60.22067 | 7.61604 | 26892 ft | 365 kts | 273° |
| 2026-05-07 14:43 | 60.22197 | 7.56516 | 26632 ft | 364 kts | 273° |
| 2026-05-07 14:44 | 60.22323 | 7.51445 | 26376 ft | 363 kts | 273° |
| 2026-05-07 14:44 | 60.22450 | 7.46377 | 26105 ft | 362 kts | 273° |
| 2026-05-07 14:44 | 60.22574 | 7.41335 | 25851 ft | 361 kts | 273° |
| 2026-05-07 14:44 | 60.22697 | 7.36308 | 25599 ft | 360 kts | 273° |
| 2026-05-07 14:45 | 60.22816 | 7.31292 | 25351 ft | 358 kts | 272° |
| 2026-05-07 14:45 | 60.22933 | 7.26291 | 25104 ft | 357 kts | 272° |
| 2026-05-07 14:45 | 60.23050 | 7.21312 | 24816 ft | 354 kts | 272° |
| 2026-05-07 14:45 | 60.23163 | 7.16411 | 24386 ft | 349 kts | 272° |
| 2026-05-07 14:46 | 60.23272 | 7.11558 | 23912 ft | 346 kts | 272° |
| 2026-05-07 14:46 | 60.23377 | 7.06735 | 23431 ft | 343 kts | 272° |
| 2026-05-07 14:46 | 60.23477 | 7.02023 | 22973 ft | 340 kts | 272° |
| 2026-05-07 14:46 | 60.23575 | 6.97307 | 22557 ft | 336 kts | 272° |
| 2026-05-07 14:47 | 60.23671 | 6.92641 | 22105 ft | 331 kts | 272° |
| 2026-05-07 14:47 | 60.23765 | 6.88048 | 21702 ft | 326 kts | 272° |
| 2026-05-07 14:47 | 60.23855 | 6.83519 | 21304 ft | 321 kts | 272° |
| 2026-05-07 14:47 | 60.23942 | 6.79058 | 20903 ft | 317 kts | 272° |
| 2026-05-07 14:48 | 60.24024 | 6.74641 | 20494 ft | 315 kts | 271° |
| 2026-05-07 14:48 | 60.24102 | 6.70237 | 20089 ft | 314 kts | 271° |
| 2026-05-07 14:48 | 60.24183 | 6.65850 | 19655 ft | 313 kts | 271° |
| 2026-05-07 14:48 | 60.24315 | 6.61488 | 19233 ft | 312 kts | 276° |
| 2026-05-07 14:49 | 60.24593 | 6.58588 | 18935 ft | 312 kts | 283° |
| 2026-05-07 14:49 | 60.25326 | 6.54470 | 18452 ft | 314 kts | 292° |
| 2026-05-07 14:49 | 60.26301 | 6.50539 | 17934 ft | 314 kts | 293° |
| 2026-05-07 14:49 | 60.27271 | 6.46606 | 17432 ft | 313 kts | 293° |
| 2026-05-07 14:50 | 60.28228 | 6.42684 | 16937 ft | 312 kts | 292° |
| 2026-05-07 14:50 | 60.29180 | 6.38760 | 16441 ft | 311 kts | 292° |
| 2026-05-07 14:50 | 60.30116 | 6.34898 | 15958 ft | 310 kts | 292° |
| 2026-05-07 14:50 | 60.31064 | 6.30990 | 15470 ft | 310 kts | 292° |
| 2026-05-07 14:51 | 60.32011 | 6.27085 | 14987 ft | 310 kts | 292° |
| 2026-05-07 14:51 | 60.32957 | 6.23174 | 14490 ft | 310 kts | 292° |
| 2026-05-07 14:51 | 60.33897 | 6.19266 | 13996 ft | 309 kts | 292° |
| 2026-05-07 14:51 | 60.34836 | 6.15357 | 13465 ft | 309 kts | 292° |
| 2026-05-07 14:52 | 60.35772 | 6.11478 | 12967 ft | 307 kts | 292° |
| 2026-05-07 14:52 | 60.36721 | 6.07524 | 12121 ft | 318 kts | 292° |
| 2026-05-07 14:52 | 60.37698 | 6.03442 | 11306 ft | 326 kts | 292° |
| 2026-05-07 14:52 | 60.38695 | 5.99283 | 10504 ft | 332 kts | 293° |
| 2026-05-07 14:53 | 60.39819 | 5.95263 | 10271 ft | 324 kts | 304° |
| 2026-05-07 14:53 | 60.41365 | 5.92056 | 10209 ft | 312 kts | 314° |
| 2026-05-07 14:53 | 60.42913 | 5.89131 | 10133 ft | 295 kts | 314° |
| 2026-05-07 14:53 | 60.44390 | 5.86346 | 9964 ft | 286 kts | 314° |
| 2026-05-07 14:54 | 60.45837 | 5.83612 | 9829 ft | 284 kts | 314° |
| 2026-05-07 14:54 | 60.47282 | 5.80870 | 9493 ft | 284 kts | 314° |
| 2026-05-07 14:54 | 60.48718 | 5.78141 | 9140 ft | 282 kts | 314° |
| 2026-05-07 14:54 | 60.50150 | 5.75417 | 8788 ft | 281 kts | 314° |
| 2026-05-07 14:55 | 60.51573 | 5.72713 | 8443 ft | 280 kts | 314° |
| 2026-05-07 14:55 | 60.52992 | 5.70014 | 8097 ft | 279 kts | 315° |
| 2026-05-07 14:55 | 60.54361 | 5.67241 | 7770 ft | 276 kts | 305° |
| 2026-05-07 14:55 | 60.55214 | 5.63820 | 7426 ft | 271 kts | 282° |
| 2026-05-07 14:56 | 60.55334 | 5.60061 | 7104 ft | 266 kts | 259° |
| 2026-05-07 14:56 | 60.54884 | 5.56504 | 6770 ft | 256 kts | 252° |
| 2026-05-07 14:56 | 60.54400 | 5.53104 | 6442 ft | 245 kts | 252° |
| 2026-05-07 14:56 | 60.53937 | 5.49838 | 6095 ft | 236 kts | 252° |
| 2026-05-07 14:57 | 60.53484 | 5.46650 | 5888 ft | 234 kts | 252° |
| 2026-05-07 14:57 | 60.53030 | 5.43475 | 5751 ft | 238 kts | 252° |
| 2026-05-07 14:57 | 60.52558 | 5.40201 | 5487 ft | 241 kts | 251° |
| 2026-05-07 14:57 | 60.52093 | 5.36978 | 5309 ft | 236 kts | 251° |
| 2026-05-07 14:58 | 60.51648 | 5.33878 | 5214 ft | 227 kts | 251° |
| 2026-05-07 14:58 | 60.51212 | 5.30835 | 5123 ft | 217 kts | 251° |
| 2026-05-07 14:58 | 60.50767 | 5.28003 | 5057 ft | 202 kts | 244° |
| 2026-05-07 14:58 | 60.50133 | 5.25586 | 4793 ft | 197 kts | 237° |
| 2026-05-07 14:59 | 60.49440 | 5.23116 | 4213 ft | 205 kts | 238° |
| 2026-05-07 14:59 | 60.48742 | 5.20621 | 3829 ft | 197 kts | 238° |
| 2026-05-07 14:59 | 60.47944 | 5.18518 | 3635 ft | 180 kts | 220° |
| 2026-05-07 14:59 | 60.46958 | 5.17193 | 3480 ft | 160 kts | 202° |
| 2026-05-07 15:00 | 60.45930 | 5.16581 | 3317 ft | 148 kts | 187° |
| 2026-05-07 15:00 | 60.44937 | 5.16554 | 3139 ft | 140 kts | 172° |
| 2026-05-07 15:00 | 60.43993 | 5.16867 | 2964 ft | 135 kts | 171° |
| 2026-05-07 15:00 | 60.43074 | 5.17177 | 2789 ft | 133 kts | 171° |
| 2026-05-07 15:01 | 60.42165 | 5.17485 | 2607 ft | 132 kts | 171° |
| 2026-05-07 15:01 | 60.41263 | 5.17790 | 2422 ft | 132 kts | 171° |
| 2026-05-07 15:01 | 60.40340 | 5.18102 | 2241 ft | 135 kts | 171° |
| 2026-05-07 15:01 | 60.39424 | 5.18412 | 2072 ft | 131 kts | 171° |
| 2026-05-07 15:02 | 60.38519 | 5.18719 | 1872 ft | 131 kts | 173° |
| 2026-05-07 15:02 | 60.37621 | 5.19022 | 1684 ft | 131 kts | 172° |
| 2026-05-07 15:02 | 60.36724 | 5.19325 | 1500 ft | 131 kts | 172° |
| 2026-05-07 15:02 | 60.35825 | 5.19628 | 1313 ft | 132 kts | 171° |
| 2026-05-07 15:03 | 60.34911 | 5.19936 | 1128 ft | 134 kts | 171° |
| 2026-05-07 15:03 | 60.33994 | 5.20245 | 938 ft | 133 kts | 172° |
| 2026-05-07 15:03 | 60.33082 | 5.20553 | 743 ft | 133 kts | 172° |
| 2026-05-07 15:03 | 60.32177 | 5.20865 | 565 ft | 131 kts | 172° |
| 2026-05-07 15:04 | 60.31282 | 5.21179 | 372 ft | 130 kts | 173° |
| 2026-05-07 15:04 | 60.30391 | 5.21465 | 220 ft | 130 kts | 173° |
| 2026-05-07 15:04 | 60.29538 | 5.21749 | 148 ft | 103 kts | 171° |
| 2026-05-07 15:04 | 60.29031 | 5.21921 | 161 ft | 65 kts | 170° |
| 2026-05-07 15:05 | 60.28640 | 5.22057 | 162 ft | 37 kts | 170° |
| 2026-05-07 15:05 | 60.28408 | 5.22133 | 160 ft | 24 kts | 171° |
| 2026-05-07 15:05 | 60.28285 | 5.22235 | 156 ft | 20 kts | 119° |
| 2026-05-07 15:05 | 60.28282 | 5.22406 | 155 ft | 0 kts | 81° |
| 2026-05-07 15:06 | 60.28282 | 5.22410 | 155 ft | 1 kts | 81° |
| 2026-05-07 15:06 | 60.28291 | 5.22448 | 156 ft | 5 kts | 50° |
| 2026-05-07 15:06 | 60.28338 | 5.22473 | 159 ft | 10 kts | 355° |
| 2026-05-07 15:07 | 60.28428 | 5.22444 | 163 ft | 16 kts | 351° |
| 2026-05-07 15:07 | 60.28566 | 5.22402 | 164 ft | 22 kts | 349° |
| 2026-05-07 15:07 | 60.28682 | 5.22414 | 165 ft | 16 kts | 40° |
| 2026-05-07 15:07 | 60.28710 | 5.22550 | 167 ft | 10 kts | 80° |
| 2026-05-07 15:08 | 60.28721 | 5.22680 | 170 ft | 9 kts | 80° |
| 2026-05-07 15:08 | 60.28731 | 5.22800 | 173 ft | 8 kts | 81° |
| 2026-05-07 15:08 | 60.28737 | 5.22875 | 173 ft | 4 kts | 80° |
| 2026-05-07 15:08 | 60.28740 | 5.22909 | 173 ft | 0 kts | 81° |
| 2026-05-07 15:09 | 60.28740 | 5.22908 | 173 ft | 0 kts | 81° |